sensor_id;sensor_type;location;lat;lon;timestamp;temperature;humidity
64012;DHT22;50211;52.768;12.124;2023-04-24T00:00:34;10.20;99.90
64012;DHT22;50211;52.768;12.124;2023-04-24T00:03:01;10.20;99.90
64012;DHT22;50211;52.768;12.124;2023-04-24T00:05:28;10.30;99.90
64012;DHT22;50211;52.768;12.124;2023-04-24T00:07:54;10.40;99.90
64012;DHT22;50211;52.768;12.124;2023-04-24T00:10:20;10.40;99.90
64012;DHT22;50211;52.768;12.124;2023-04-24T00:12:46;10.50;99.90
64012;DHT22;50211;52.768;12.124;2023-04-24T00:15:12;10.50;99.90
64012;DHT22;50211;52.768;12.124;2023-04-24T00:17:38;10.60;99.90
64012;DHT22;50211;52.768;12.124;2023-04-24T00:20:04;10.60;99.90
64012;DHT22;50211;52.768;12.124;2023-04-24T00:22:30;10.60;99.90
64012;DHT22;50211;52.768;12.124;2023-04-24T00:24:56;10.60;99.90
64012;DHT22;50211;52.768;12.124;2023-04-24T00:27:22;10.60;99.90
64012;DHT22;50211;52.768;12.124;2023-04-24T00:29:48;10.60;99.90
64012;DHT22;50211;52.768;12.124;2023-04-24T00:32:13;10.60;99.90
64012;DHT22;50211;52.768;12.124;2023-04-24T00:34:40;10.60;99.90
64012;DHT22;50211;52.768;12.124;2023-04-24T00:37:05;10.60;99.90
64012;DHT22;50211;52.768;12.124;2023-04-24T00:39:31;10.50;99.90
64012;DHT22;50211;52.768;12.124;2023-04-24T00:41:57;10.60;99.90
64012;DHT22;50211;52.768;12.124;2023-04-24T00:44:23;10.70;99.90
64012;DHT22;50211;52.768;12.124;2023-04-24T00:46:49;10.70;99.90
64012;DHT22;50211;52.768;12.124;2023-04-24T00:49:21;10.80;99.90
64012;DHT22;50211;52.768;12.124;2023-04-24T00:51:46;10.80;99.90
64012;DHT22;50211;52.768;12.124;2023-04-24T00:54:13;10.80;99.90
64012;DHT22;50211;52.768;12.124;2023-04-24T00:56:39;10.80;99.90
64012;DHT22;50211;52.768;12.124;2023-04-24T00:59:06;10.80;99.90
64012;DHT22;50211;52.768;12.124;2023-04-24T01:01:32;10.80;99.90
64012;DHT22;50211;52.768;12.124;2023-04-24T01:03:58;10.70;99.90
64012;DHT22;50211;52.768;12.124;2023-04-24T01:06:27;10.80;99.90
64012;DHT22;50211;52.768;12.124;2023-04-24T01:08:54;10.80;99.90
64012;DHT22;50211;52.768;12.124;2023-04-24T01:11:21;10.80;99.90
64012;DHT22;50211;52.768;12.124;2023-04-24T01:13:47;10.70;99.90
64012;DHT22;50211;52.768;12.124;2023-04-24T01:16:14;10.80;99.90
64012;DHT22;50211;52.768;12.124;2023-04-24T01:18:40;10.80;99.90
64012;DHT22;50211;52.768;12.124;2023-04-24T01:21:08;10.70;99.90
64012;DHT22;50211;52.768;12.124;2023-04-24T01:23:34;10.70;99.90
64012;DHT22;50211;52.768;12.124;2023-04-24T01:26:00;10.70;99.90
64012;DHT22;50211;52.768;12.124;2023-04-24T01:28:26;10.70;99.90
64012;DHT22;50211;52.768;12.124;2023-04-24T01:30:52;10.70;99.90
64012;DHT22;50211;52.768;12.124;2023-04-24T01:33:18;10.70;99.90
64012;DHT22;50211;52.768;12.124;2023-04-24T01:35:43;10.70;99.90
64012;DHT22;50211;52.768;12.124;2023-04-24T01:38:09;10.70;99.90
64012;DHT22;50211;52.768;12.124;2023-04-24T01:40:34;10.70;99.90
64012;DHT22;50211;52.768;12.124;2023-04-24T01:43:00;10.80;99.90
64012;DHT22;50211;52.768;12.124;2023-04-24T01:45:26;10.80;99.90
64012;DHT22;50211;52.768;12.124;2023-04-24T01:47:51;10.80;99.90
64012;DHT22;50211;52.768;12.124;2023-04-24T01:50:17;10.90;99.90
64012;DHT22;50211;52.768;12.124;2023-04-24T01:52:43;10.90;99.90
64012;DHT22;50211;52.768;12.124;2023-04-24T01:55:09;11.00;99.90
64012;DHT22;50211;52.768;12.124;2023-04-24T01:57:35;11.00;99.90
64012;DHT22;50211;52.768;12.124;2023-04-24T02:00:01;11.10;99.90
64012;DHT22;50211;52.768;12.124;2023-04-24T02:02:29;11.20;99.90
64012;DHT22;50211;52.768;12.124;2023-04-24T02:04:55;11.30;99.90
64012;DHT22;50211;52.768;12.124;2023-04-24T02:07:21;11.40;99.90
64012;DHT22;50211;52.768;12.124;2023-04-24T02:09:46;11.50;99.90
64012;DHT22;50211;52.768;12.124;2023-04-24T02:12:12;11.60;99.90
64012;DHT22;50211;52.768;12.124;2023-04-24T02:14:37;11.60;99.90
64012;DHT22;50211;52.768;12.124;2023-04-24T02:17:03;11.70;99.90
64012;DHT22;50211;52.768;12.124;2023-04-24T02:19:28;11.70;99.90
64012;DHT22;50211;52.768;12.124;2023-04-24T02:21:54;11.70;99.90
64012;DHT22;50211;52.768;12.124;2023-04-24T02:24:19;11.80;99.90
64012;DHT22;50211;52.768;12.124;2023-04-24T02:26:45;11.80;99.90
64012;DHT22;50211;52.768;12.124;2023-04-24T02:29:10;11.80;99.90
64012;DHT22;50211;52.768;12.124;2023-04-24T02:31:36;11.80;99.90
64012;DHT22;50211;52.768;12.124;2023-04-24T02:34:02;11.80;99.90
64012;DHT22;50211;52.768;12.124;2023-04-24T02:36:27;11.80;99.90
64012;DHT22;50211;52.768;12.124;2023-04-24T02:38:53;11.90;99.90
64012;DHT22;50211;52.768;12.124;2023-04-24T02:41:18;11.80;99.90
64012;DHT22;50211;52.768;12.124;2023-04-24T02:43:44;11.80;99.90
64012;DHT22;50211;52.768;12.124;2023-04-24T02:46:10;11.80;99.90
64012;DHT22;50211;52.768;12.124;2023-04-24T02:48:36;11.80;99.90
64012;DHT22;50211;52.768;12.124;2023-04-24T02:51:01;11.80;99.90
64012;DHT22;50211;52.768;12.124;2023-04-24T02:53:27;11.80;99.90
64012;DHT22;50211;52.768;12.124;2023-04-24T02:55:52;11.80;99.90
64012;DHT22;50211;52.768;12.124;2023-04-24T02:58:18;11.70;99.90
64012;DHT22;50211;52.768;12.124;2023-04-24T03:00:45;11.70;99.90
64012;DHT22;50211;52.768;12.124;2023-04-24T03:03:11;11.70;99.90
64012;DHT22;50211;52.768;12.124;2023-04-24T03:05:36;11.70;99.90
64012;DHT22;50211;52.768;12.124;2023-04-24T03:08:02;11.70;99.90
64012;DHT22;50211;52.768;12.124;2023-04-24T03:10:27;11.70;99.90
64012;DHT22;50211;52.768;12.124;2023-04-24T03:12:53;11.70;99.90
64012;DHT22;50211;52.768;12.124;2023-04-24T03:15:20;11.70;99.90
64012;DHT22;50211;52.768;12.124;2023-04-24T03:17:45;11.60;99.90
64012;DHT22;50211;52.768;12.124;2023-04-24T03:20:12;11.70;99.90
64012;DHT22;50211;52.768;12.124;2023-04-24T03:22:37;11.70;99.90
64012;DHT22;50211;52.768;12.124;2023-04-24T03:25:03;11.70;99.90
64012;DHT22;50211;52.768;12.124;2023-04-24T03:27:29;11.70;99.90
64012;DHT22;50211;52.768;12.124;2023-04-24T03:29:55;11.70;99.90
64012;DHT22;50211;52.768;12.124;2023-04-24T03:32:22;11.70;99.90
64012;DHT22;50211;52.768;12.124;2023-04-24T03:34:48;11.70;99.90
64012;DHT22;50211;52.768;12.124;2023-04-24T03:37:14;11.60;99.90
64012;DHT22;50211;52.768;12.124;2023-04-24T03:39:40;11.70;99.90
64012;DHT22;50211;52.768;12.124;2023-04-24T03:42:05;11.70;99.90
64012;DHT22;50211;52.768;12.124;2023-04-24T03:44:31;11.70;99.90
64012;DHT22;50211;52.768;12.124;2023-04-24T03:46:57;11.70;99.90
64012;DHT22;50211;52.768;12.124;2023-04-24T03:49:23;11.70;99.90
64012;DHT22;50211;52.768;12.124;2023-04-24T03:51:49;11.70;99.90
64012;DHT22;50211;52.768;12.124;2023-04-24T03:54:14;11.70;99.90
64012;DHT22;50211;52.768;12.124;2023-04-24T03:56:40;11.70;99.90
64012;DHT22;50211;52.768;12.124;2023-04-24T03:59:05;11.70;99.90
64012;DHT22;50211;52.768;12.124;2023-04-24T04:01:31;11.60;99.90
64012;DHT22;50211;52.768;12.124;2023-04-24T04:03:56;11.70;99.90
64012;DHT22;50211;52.768;12.124;2023-04-24T04:06:22;11.70;99.90
64012;DHT22;50211;52.768;12.124;2023-04-24T04:08:47;11.70;99.90
64012;DHT22;50211;52.768;12.124;2023-04-24T04:11:13;11.70;99.90
64012;DHT22;50211;52.768;12.124;2023-04-24T04:13:39;11.70;99.90
64012;DHT22;50211;52.768;12.124;2023-04-24T04:16:04;11.70;99.90
64012;DHT22;50211;52.768;12.124;2023-04-24T04:18:30;11.60;99.90
64012;DHT22;50211;52.768;12.124;2023-04-24T04:20:55;11.60;99.90
64012;DHT22;50211;52.768;12.124;2023-04-24T04:23:22;11.60;99.90
64012;DHT22;50211;52.768;12.124;2023-04-24T04:25:48;11.50;99.90
64012;DHT22;50211;52.768;12.124;2023-04-24T04:28:13;11.50;99.90
64012;DHT22;50211;52.768;12.124;2023-04-24T04:30:39;11.50;99.90
64012;DHT22;50211;52.768;12.124;2023-04-24T04:33:05;11.40;99.90
64012;DHT22;50211;52.768;12.124;2023-04-24T04:35:30;11.40;99.90
64012;DHT22;50211;52.768;12.124;2023-04-24T04:37:56;11.40;99.90
64012;DHT22;50211;52.768;12.124;2023-04-24T04:40:24;11.30;99.90
64012;DHT22;50211;52.768;12.124;2023-04-24T04:42:49;11.30;99.90
64012;DHT22;50211;52.768;12.124;2023-04-24T04:45:18;11.30;99.90
64012;DHT22;50211;52.768;12.124;2023-04-24T04:47:43;11.30;99.90
64012;DHT22;50211;52.768;12.124;2023-04-24T04:50:09;11.30;99.90
64012;DHT22;50211;52.768;12.124;2023-04-24T04:52:35;11.20;99.90
64012;DHT22;50211;52.768;12.124;2023-04-24T04:55:01;11.20;99.90
64012;DHT22;50211;52.768;12.124;2023-04-24T04:57:27;11.20;99.90
64012;DHT22;50211;52.768;12.124;2023-04-24T04:59:52;11.20;99.90
64012;DHT22;50211;52.768;12.124;2023-04-24T05:02:18;11.20;99.90
64012;DHT22;50211;52.768;12.124;2023-04-24T05:04:43;11.10;99.90
64012;DHT22;50211;52.768;12.124;2023-04-24T05:07:10;11.20;99.90
64012;DHT22;50211;52.768;12.124;2023-04-24T05:09:36;11.10;99.90
64012;DHT22;50211;52.768;12.124;2023-04-24T05:12:01;11.10;99.90
64012;DHT22;50211;52.768;12.124;2023-04-24T05:14:27;11.10;99.90
64012;DHT22;50211;52.768;12.124;2023-04-24T05:16:52;11.10;99.90
64012;DHT22;50211;52.768;12.124;2023-04-24T05:19:18;11.10;99.90
64012;DHT22;50211;52.768;12.124;2023-04-24T05:21:44;11.10;99.90
64012;DHT22;50211;52.768;12.124;2023-04-24T05:24:09;11.20;99.90
64012;DHT22;50211;52.768;12.124;2023-04-24T05:26:35;11.20;99.90
64012;DHT22;50211;52.768;12.124;2023-04-24T05:29:01;11.30;99.90
64012;DHT22;50211;52.768;12.124;2023-04-24T05:31:26;11.40;99.90
64012;DHT22;50211;52.768;12.124;2023-04-24T05:33:52;11.50;99.90
64012;DHT22;50211;52.768;12.124;2023-04-24T05:36:17;11.60;99.90
64012;DHT22;50211;52.768;12.124;2023-04-24T05:38:43;11.70;99.90
64012;DHT22;50211;52.768;12.124;2023-04-24T05:41:08;11.80;99.90
64012;DHT22;50211;52.768;12.124;2023-04-24T05:43:34;11.90;99.90
64012;DHT22;50211;52.768;12.124;2023-04-24T05:45:59;12.00;99.90
64012;DHT22;50211;52.768;12.124;2023-04-24T05:48:25;12.00;99.90
64012;DHT22;50211;52.768;12.124;2023-04-24T05:50:51;12.10;99.90
64012;DHT22;50211;52.768;12.124;2023-04-24T05:53:18;12.20;99.90
64012;DHT22;50211;52.768;12.124;2023-04-24T05:55:43;12.30;99.90
64012;DHT22;50211;52.768;12.124;2023-04-24T05:58:09;12.50;99.90
64012;DHT22;50211;52.768;12.124;2023-04-24T06:00:35;12.60;99.90
64012;DHT22;50211;52.768;12.124;2023-04-24T06:03:01;12.80;99.90
64012;DHT22;50211;52.768;12.124;2023-04-24T06:05:29;12.90;99.90
64012;DHT22;50211;52.768;12.124;2023-04-24T06:07:55;13.10;99.90
64012;DHT22;50211;52.768;12.124;2023-04-24T06:10:20;13.20;99.90
64012;DHT22;50211;52.768;12.124;2023-04-24T06:12:46;13.20;99.90
64012;DHT22;50211;52.768;12.124;2023-04-24T06:15:11;13.30;99.90
64012;DHT22;50211;52.768;12.124;2023-04-24T06:17:38;13.40;99.90
64012;DHT22;50211;52.768;12.124;2023-04-24T06:20:03;13.40;99.90
64012;DHT22;50211;52.768;12.124;2023-04-24T06:22:30;13.50;99.90
64012;DHT22;50211;52.768;12.124;2023-04-24T06:24:56;13.60;99.90
64012;DHT22;50211;52.768;12.124;2023-04-24T06:27:21;13.50;99.90
64012;DHT22;50211;52.768;12.124;2023-04-24T06:29:47;13.60;99.90
64012;DHT22;50211;52.768;12.124;2023-04-24T06:32:20;13.70;99.90
64012;DHT22;50211;52.768;12.124;2023-04-24T06:34:46;13.70;99.90
64012;DHT22;50211;52.768;12.124;2023-04-24T06:37:11;13.70;99.90
64012;DHT22;50211;52.768;12.124;2023-04-24T06:39:37;13.80;99.90
64012;DHT22;50211;52.768;12.124;2023-04-24T06:42:02;13.80;99.90
64012;DHT22;50211;52.768;12.124;2023-04-24T06:44:28;13.90;99.90
64012;DHT22;50211;52.768;12.124;2023-04-24T06:46:53;13.80;99.90
64012;DHT22;50211;52.768;12.124;2023-04-24T06:49:19;13.90;99.90
64012;DHT22;50211;52.768;12.124;2023-04-24T06:51:45;13.90;99.90
64012;DHT22;50211;52.768;12.124;2023-04-24T06:54:10;13.90;99.90
64012;DHT22;50211;52.768;12.124;2023-04-24T06:56:36;13.90;99.90
64012;DHT22;50211;52.768;12.124;2023-04-24T06:59:02;14.00;99.90
64012;DHT22;50211;52.768;12.124;2023-04-24T07:01:27;14.10;99.90
64012;DHT22;50211;52.768;12.124;2023-04-24T07:03:53;14.00;99.90
64012;DHT22;50211;52.768;12.124;2023-04-24T07:06:18;14.10;99.90
64012;DHT22;50211;52.768;12.124;2023-04-24T07:08:46;14.30;99.90
64012;DHT22;50211;52.768;12.124;2023-04-24T07:11:12;14.30;99.90
64012;DHT22;50211;52.768;12.124;2023-04-24T07:13:38;14.40;99.90
64012;DHT22;50211;52.768;12.124;2023-04-24T07:16:07;14.50;99.90
64012;DHT22;50211;52.768;12.124;2023-04-24T07:18:33;14.60;99.90
64012;DHT22;50211;52.768;12.124;2023-04-24T07:20:59;14.60;99.90
64012;DHT22;50211;52.768;12.124;2023-04-24T07:23:24;14.60;99.90
64012;DHT22;50211;52.768;12.124;2023-04-24T07:25:50;14.70;99.90
64012;DHT22;50211;52.768;12.124;2023-04-24T07:28:15;14.70;99.90
64012;DHT22;50211;52.768;12.124;2023-04-24T07:30:43;14.40;99.90
64012;DHT22;50211;52.768;12.124;2023-04-24T07:33:08;14.20;99.90
64012;DHT22;50211;52.768;12.124;2023-04-24T07:35:36;14.30;99.90
64012;DHT22;50211;52.768;12.124;2023-04-24T07:38:01;14.40;99.90
64012;DHT22;50211;52.768;12.124;2023-04-24T07:40:27;14.60;99.90
64012;DHT22;50211;52.768;12.124;2023-04-24T07:42:52;15.00;99.90
64012;DHT22;50211;52.768;12.124;2023-04-24T07:45:18;15.20;99.90
64012;DHT22;50211;52.768;12.124;2023-04-24T07:47:44;15.20;99.90
64012;DHT22;50211;52.768;12.124;2023-04-24T07:50:11;15.10;99.90
64012;DHT22;50211;52.768;12.124;2023-04-24T07:52:37;14.90;99.90
64012;DHT22;50211;52.768;12.124;2023-04-24T07:55:03;14.90;99.90
64012;DHT22;50211;52.768;12.124;2023-04-24T07:57:29;14.90;99.90
64012;DHT22;50211;52.768;12.124;2023-04-24T07:59:55;14.90;99.90
64012;DHT22;50211;52.768;12.124;2023-04-24T08:02:20;14.90;99.90
64012;DHT22;50211;52.768;12.124;2023-04-24T08:04:52;15.20;99.90
64012;DHT22;50211;52.768;12.124;2023-04-24T08:07:18;15.60;99.90
64012;DHT22;50211;52.768;12.124;2023-04-24T08:09:43;16.00;99.90
64012;DHT22;50211;52.768;12.124;2023-04-24T08:12:09;16.50;99.90
64012;DHT22;50211;52.768;12.124;2023-04-24T08:14:35;17.10;99.90
64012;DHT22;50211;52.768;12.124;2023-04-24T08:17:00;17.40;99.90
64012;DHT22;50211;52.768;12.124;2023-04-24T08:19:26;17.20;99.90
64012;DHT22;50211;52.768;12.124;2023-04-24T08:21:52;17.20;99.90
64012;DHT22;50211;52.768;12.124;2023-04-24T08:24:17;16.90;99.90
64012;DHT22;50211;52.768;12.124;2023-04-24T08:26:43;17.00;99.90
64012;DHT22;50211;52.768;12.124;2023-04-24T08:29:08;16.90;99.90
64012;DHT22;50211;52.768;12.124;2023-04-24T08:31:34;16.50;99.90
64012;DHT22;50211;52.768;12.124;2023-04-24T08:34:00;16.20;99.90
64012;DHT22;50211;52.768;12.124;2023-04-24T08:36:26;16.30;99.90
64012;DHT22;50211;52.768;12.124;2023-04-24T08:38:52;16.70;99.90
64012;DHT22;50211;52.768;12.124;2023-04-24T08:41:18;17.00;99.90
64012;DHT22;50211;52.768;12.124;2023-04-24T08:43:45;17.00;99.90
64012;DHT22;50211;52.768;12.124;2023-04-24T08:46:12;16.90;99.90
64012;DHT22;50211;52.768;12.124;2023-04-24T08:48:39;17.00;99.90
64012;DHT22;50211;52.768;12.124;2023-04-24T08:51:07;16.60;99.90
64012;DHT22;50211;52.768;12.124;2023-04-24T08:53:33;16.20;99.90
64012;DHT22;50211;52.768;12.124;2023-04-24T08:56:01;15.90;99.90
64012;DHT22;50211;52.768;12.124;2023-04-24T08:58:27;15.70;99.90
64012;DHT22;50211;52.768;12.124;2023-04-24T09:00:56;15.70;99.90
64012;DHT22;50211;52.768;12.124;2023-04-24T09:03:23;15.60;99.90
64012;DHT22;50211;52.768;12.124;2023-04-24T09:05:49;15.80;99.90
64012;DHT22;50211;52.768;12.124;2023-04-24T09:08:17;16.50;99.90
64012;DHT22;50211;52.768;12.124;2023-04-24T09:10:43;17.20;99.90
64012;DHT22;50211;52.768;12.124;2023-04-24T09:13:09;17.40;99.90
64012;DHT22;50211;52.768;12.124;2023-04-24T09:15:36;17.60;99.90
64012;DHT22;50211;52.768;12.124;2023-04-24T09:18:02;17.50;99.90
64012;DHT22;50211;52.768;12.124;2023-04-24T09:20:28;17.40;99.90
64012;DHT22;50211;52.768;12.124;2023-04-24T09:22:54;17.40;99.90
64012;DHT22;50211;52.768;12.124;2023-04-24T09:25:31;17.10;99.90
64012;DHT22;50211;52.768;12.124;2023-04-24T09:28:04;16.60;99.90
64012;DHT22;50211;52.768;12.124;2023-04-24T09:30:30;16.40;99.90
64012;DHT22;50211;52.768;12.124;2023-04-24T09:33:14;16.40;99.90
64012;DHT22;50211;52.768;12.124;2023-04-24T09:35:50;16.40;99.90
64012;DHT22;50211;52.768;12.124;2023-04-24T09:38:16;16.30;99.90
64012;DHT22;50211;52.768;12.124;2023-04-24T09:40:41;16.10;99.90
64012;DHT22;50211;52.768;12.124;2023-04-24T09:43:11;15.90;99.90
64012;DHT22;50211;52.768;12.124;2023-04-24T09:45:39;15.80;99.90
64012;DHT22;50211;52.768;12.124;2023-04-24T09:48:08;15.70;99.90
64012;DHT22;50211;52.768;12.124;2023-04-24T09:50:34;15.60;99.90
64012;DHT22;50211;52.768;12.124;2023-04-24T09:53:02;15.40;99.90
64012;DHT22;50211;52.768;12.124;2023-04-24T09:55:29;15.60;99.90
64012;DHT22;50211;52.768;12.124;2023-04-24T09:57:56;15.80;99.90
64012;DHT22;50211;52.768;12.124;2023-04-24T10:00:30;15.90;99.90
64012;DHT22;50211;52.768;12.124;2023-04-24T10:03:00;16.00;99.90
64012;DHT22;50211;52.768;12.124;2023-04-24T10:05:37;16.10;99.90
64012;DHT22;50211;52.768;12.124;2023-04-24T10:08:10;16.00;99.90
64012;DHT22;50211;52.768;12.124;2023-04-24T10:10:41;15.90;99.90
64012;DHT22;50211;52.768;12.124;2023-04-24T10:13:09;15.80;99.90
64012;DHT22;50211;52.768;12.124;2023-04-24T10:15:35;15.60;99.90
64012;DHT22;50211;52.768;12.124;2023-04-24T10:18:02;15.60;99.90
64012;DHT22;50211;52.768;12.124;2023-04-24T10:20:29;15.40;99.90
64012;DHT22;50211;52.768;12.124;2023-04-24T10:22:57;15.40;99.90
64012;DHT22;50211;52.768;12.124;2023-04-24T10:25:28;15.30;99.90
64012;DHT22;50211;52.768;12.124;2023-04-24T10:27:54;15.20;99.90
64012;DHT22;50211;52.768;12.124;2023-04-24T10:30:23;14.90;99.90
64012;DHT22;50211;52.768;12.124;2023-04-24T10:32:48;14.70;99.90
64012;DHT22;50211;52.768;12.124;2023-04-24T10:35:15;14.20;99.90
64012;DHT22;50211;52.768;12.124;2023-04-24T10:37:48;13.70;99.90
64012;DHT22;50211;52.768;12.124;2023-04-24T10:40:19;13.10;99.90
64012;DHT22;50211;52.768;12.124;2023-04-24T10:42:52;12.60;99.90
64012;DHT22;50211;52.768;12.124;2023-04-24T10:45:21;12.20;99.90
64012;DHT22;50211;52.768;12.124;2023-04-24T10:48:14;12.00;99.90
64012;DHT22;50211;52.768;12.124;2023-04-24T10:50:50;11.90;99.90
64012;DHT22;50211;52.768;12.124;2023-04-24T10:53:21;11.80;99.90
64012;DHT22;50211;52.768;12.124;2023-04-24T10:55:52;11.80;99.90
64012;DHT22;50211;52.768;12.124;2023-04-24T10:58:24;11.70;99.90
64012;DHT22;50211;52.768;12.124;2023-04-24T11:00:58;11.60;99.90
64012;DHT22;50211;52.768;12.124;2023-04-24T11:03:31;11.50;99.90
64012;DHT22;50211;52.768;12.124;2023-04-24T11:06:00;11.60;99.90
64012;DHT22;50211;52.768;12.124;2023-04-24T11:08:29;11.60;99.90
64012;DHT22;50211;52.768;12.124;2023-04-24T11:11:01;11.70;99.90
64012;DHT22;50211;52.768;12.124;2023-04-24T11:16:30;11.90;99.90
64012;DHT22;50211;52.768;12.124;2023-04-24T11:19:17;12.00;99.90
64012;DHT22;50211;52.768;12.124;2023-04-24T11:21:58;12.10;99.90
64012;DHT22;50211;52.768;12.124;2023-04-24T11:24:48;12.40;99.90
64012;DHT22;50211;52.768;12.124;2023-04-24T11:27:19;12.50;99.90
64012;DHT22;50211;52.768;12.124;2023-04-24T11:35:23;14.00;99.90
64012;DHT22;50211;52.768;12.124;2023-04-24T11:37:52;14.80;99.90
64012;DHT22;50211;52.768;12.124;2023-04-24T11:40:20;15.80;99.90
64012;DHT22;50211;52.768;12.124;2023-04-24T11:42:50;16.20;99.90
64012;DHT22;50211;52.768;12.124;2023-04-24T11:45:18;16.50;99.90
64012;DHT22;50211;52.768;12.124;2023-04-24T11:47:44;16.80;99.90
64012;DHT22;50211;52.768;12.124;2023-04-24T11:50:16;16.80;99.90
64012;DHT22;50211;52.768;12.124;2023-04-24T11:52:44;16.90;99.90
64012;DHT22;50211;52.768;12.124;2023-04-24T11:57:55;17.90;99.90
64012;DHT22;50211;52.768;12.124;2023-04-24T12:00:26;18.20;99.90
64012;DHT22;50211;52.768;12.124;2023-04-24T12:03:07;17.70;99.90
64012;DHT22;50211;52.768;12.124;2023-04-24T12:05:32;18.50;99.90
64012;DHT22;50211;52.768;12.124;2023-04-24T12:07:59;18.60;99.90
64012;DHT22;50211;52.768;12.124;2023-04-24T12:10:27;18.80;99.90
64012;DHT22;50211;52.768;12.124;2023-04-24T12:12:53;19.00;99.90
64012;DHT22;50211;52.768;12.124;2023-04-24T12:15:20;19.00;99.90
64012;DHT22;50211;52.768;12.124;2023-04-24T12:17:46;19.40;99.90
64012;DHT22;50211;52.768;12.124;2023-04-24T12:20:12;19.70;99.90
64012;DHT22;50211;52.768;12.124;2023-04-24T12:22:52;20.20;99.90
64012;DHT22;50211;52.768;12.124;2023-04-24T12:25:20;20.10;99.90
64012;DHT22;50211;52.768;12.124;2023-04-24T12:27:57;19.60;99.90
64012;DHT22;50211;52.768;12.124;2023-04-24T12:30:40;19.00;99.90
64012;DHT22;50211;52.768;12.124;2023-04-24T12:33:06;18.80;99.90
64012;DHT22;50211;52.768;12.124;2023-04-24T12:35:40;18.60;99.90
64012;DHT22;50211;52.768;12.124;2023-04-24T12:38:10;18.50;99.90
64012;DHT22;50211;52.768;12.124;2023-04-24T12:40:37;18.30;99.90
64012;DHT22;50211;52.768;12.124;2023-04-24T12:43:16;18.40;99.90
64012;DHT22;50211;52.768;12.124;2023-04-24T12:45:41;18.80;99.90
64012;DHT22;50211;52.768;12.124;2023-04-24T12:48:07;18.40;99.90
64012;DHT22;50211;52.768;12.124;2023-04-24T12:50:32;18.10;99.90
64012;DHT22;50211;52.768;12.124;2023-04-24T12:52:58;18.50;99.90
64012;DHT22;50211;52.768;12.124;2023-04-24T12:55:23;19.00;99.90
64012;DHT22;50211;52.768;12.124;2023-04-24T12:57:49;19.30;99.90
64012;DHT22;50211;52.768;12.124;2023-04-24T13:00:15;19.30;99.90
64012;DHT22;50211;52.768;12.124;2023-04-24T13:02:40;19.50;99.90
64012;DHT22;50211;52.768;12.124;2023-04-24T13:05:06;19.40;99.90
64012;DHT22;50211;52.768;12.124;2023-04-24T13:07:32;19.70;99.90
64012;DHT22;50211;52.768;12.124;2023-04-24T13:09:58;19.30;99.90
64012;DHT22;50211;52.768;12.124;2023-04-24T13:12:24;18.80;99.90
64012;DHT22;50211;52.768;12.124;2023-04-24T13:14:53;18.10;99.90
64012;DHT22;50211;52.768;12.124;2023-04-24T13:17:18;17.80;99.90
64012;DHT22;50211;52.768;12.124;2023-04-24T13:19:44;17.40;99.90
64012;DHT22;50211;52.768;12.124;2023-04-24T13:22:11;17.30;99.90
64012;DHT22;50211;52.768;12.124;2023-04-24T13:24:38;17.50;99.90
64012;DHT22;50211;52.768;12.124;2023-04-24T13:27:05;17.60;99.90
64012;DHT22;50211;52.768;12.124;2023-04-24T13:29:30;17.00;99.90
64012;DHT22;50211;52.768;12.124;2023-04-24T13:31:56;16.70;99.90
64012;DHT22;50211;52.768;12.124;2023-04-24T13:34:23;16.50;99.90
64012;DHT22;50211;52.768;12.124;2023-04-24T13:36:50;16.30;99.90
64012;DHT22;50211;52.768;12.124;2023-04-24T13:39:16;16.40;99.90
64012;DHT22;50211;52.768;12.124;2023-04-24T13:41:42;17.10;99.90
64012;DHT22;50211;52.768;12.124;2023-04-24T13:44:08;17.30;99.90
64012;DHT22;50211;52.768;12.124;2023-04-24T13:46:33;17.70;99.90
64012;DHT22;50211;52.768;12.124;2023-04-24T13:48:59;17.30;99.90
64012;DHT22;50211;52.768;12.124;2023-04-24T13:51:26;17.10;99.90
64012;DHT22;50211;52.768;12.124;2023-04-24T13:53:54;17.00;99.90
64012;DHT22;50211;52.768;12.124;2023-04-24T13:56:20;16.80;99.90
64012;DHT22;50211;52.768;12.124;2023-04-24T13:58:47;16.70;99.90
64012;DHT22;50211;52.768;12.124;2023-04-24T14:01:13;16.70;99.90
64012;DHT22;50211;52.768;12.124;2023-04-24T14:03:40;16.50;99.90
64012;DHT22;50211;52.768;12.124;2023-04-24T14:06:06;16.50;99.90
64012;DHT22;50211;52.768;12.124;2023-04-24T14:08:32;16.10;99.90
64012;DHT22;50211;52.768;12.124;2023-04-24T14:10:57;16.00;99.90
64012;DHT22;50211;52.768;12.124;2023-04-24T14:13:23;16.00;99.90
64012;DHT22;50211;52.768;12.124;2023-04-24T14:15:49;16.00;99.90
64012;DHT22;50211;52.768;12.124;2023-04-24T14:18:14;16.30;99.90
64012;DHT22;50211;52.768;12.124;2023-04-24T14:20:40;16.20;99.90
64012;DHT22;50211;52.768;12.124;2023-04-24T14:23:05;16.10;99.90
64012;DHT22;50211;52.768;12.124;2023-04-24T14:25:31;16.00;99.90
64012;DHT22;50211;52.768;12.124;2023-04-24T14:27:56;15.80;99.90
64012;DHT22;50211;52.768;12.124;2023-04-24T14:30:22;15.60;99.90
64012;DHT22;50211;52.768;12.124;2023-04-24T14:32:48;15.60;99.90
64012;DHT22;50211;52.768;12.124;2023-04-24T14:35:14;15.50;99.90
64012;DHT22;50211;52.768;12.124;2023-04-24T14:37:40;15.30;99.90
64012;DHT22;50211;52.768;12.124;2023-04-24T14:40:07;15.20;99.90
64012;DHT22;50211;52.768;12.124;2023-04-24T14:42:33;15.10;99.90
64012;DHT22;50211;52.768;12.124;2023-04-24T14:44:59;15.00;99.90
64012;DHT22;50211;52.768;12.124;2023-04-24T14:47:24;15.00;99.90
64012;DHT22;50211;52.768;12.124;2023-04-24T14:49:51;15.10;99.90
64012;DHT22;50211;52.768;12.124;2023-04-24T14:52:16;15.30;99.90
64012;DHT22;50211;52.768;12.124;2023-04-24T14:54:42;15.40;99.90
64012;DHT22;50211;52.768;12.124;2023-04-24T14:57:08;15.40;99.90
64012;DHT22;50211;52.768;12.124;2023-04-24T14:59:34;15.30;99.90
64012;DHT22;50211;52.768;12.124;2023-04-24T15:01:59;15.00;99.90
64012;DHT22;50211;52.768;12.124;2023-04-24T15:04:25;14.80;99.90
64012;DHT22;50211;52.768;12.124;2023-04-24T15:06:52;14.80;99.90
64012;DHT22;50211;52.768;12.124;2023-04-24T15:09:19;14.70;99.90
64012;DHT22;50211;52.768;12.124;2023-04-24T15:11:45;14.50;99.90
64012;DHT22;50211;52.768;12.124;2023-04-24T15:14:10;14.10;99.90
64012;DHT22;50211;52.768;12.124;2023-04-24T15:16:36;13.80;99.90
64012;DHT22;50211;52.768;12.124;2023-04-24T15:19:01;13.40;99.90
64012;DHT22;50211;52.768;12.124;2023-04-24T15:21:27;13.00;99.90
64012;DHT22;50211;52.768;12.124;2023-04-24T15:23:53;12.50;99.90